sensor_id;sensor_type;location;lat;lon;timestamp;temperature;humidity
41469;DHT22;27206;47.032;15.484;2022-12-07T00:01:25;2.90;1.00
41469;DHT22;27206;47.032;15.484;2022-12-07T00:03:52;2.90;1.00
41469;DHT22;27206;47.032;15.484;2022-12-07T00:06:18;2.80;1.00
41469;DHT22;27206;47.032;15.484;2022-12-07T00:08:44;2.80;1.00
41469;DHT22;27206;47.032;15.484;2022-12-07T00:13:35;2.80;1.00
41469;DHT22;27206;47.032;15.484;2022-12-07T00:16:02;2.90;1.00
41469;DHT22;27206;47.032;15.484;2022-12-07T00:18:28;2.80;1.00
41469;DHT22;27206;47.032;15.484;2022-12-07T00:20:58;2.80;1.00
41469;DHT22;27206;47.032;15.484;2022-12-07T00:23:23;2.80;1.00
41469;DHT22;27206;47.032;15.484;2022-12-07T00:25:49;2.70;1.00
41469;DHT22;27206;47.032;15.484;2022-12-07T00:28:14;2.70;1.00
41469;DHT22;27206;47.032;15.484;2022-12-07T00:30:40;2.60;1.00
41469;DHT22;27206;47.032;15.484;2022-12-07T00:33:05;2.60;1.00
41469;DHT22;27206;47.032;15.484;2022-12-07T00:35:31;2.60;1.00
41469;DHT22;27206;47.032;15.484;2022-12-07T00:37:56;2.60;1.00
41469;DHT22;27206;47.032;15.484;2022-12-07T00:40:22;2.60;1.00
41469;DHT22;27206;47.032;15.484;2022-12-07T00:42:47;2.50;1.00
41469;DHT22;27206;47.032;15.484;2022-12-07T00:45:13;2.40;1.00
41469;DHT22;27206;47.032;15.484;2022-12-07T00:47:38;2.50;1.00
41469;DHT22;27206;47.032;15.484;2022-12-07T00:50:04;2.50;1.00
41469;DHT22;27206;47.032;15.484;2022-12-07T00:52:30;2.50;1.00
41469;DHT22;27206;47.032;15.484;2022-12-07T00:54:55;2.50;1.00
41469;DHT22;27206;47.032;15.484;2022-12-07T00:57:20;2.40;1.00
41469;DHT22;27206;47.032;15.484;2022-12-07T00:59:46;2.50;1.00
41469;DHT22;27206;47.032;15.484;2022-12-07T01:02:11;2.50;1.00
41469;DHT22;27206;47.032;15.484;2022-12-07T01:04:37;2.50;1.00
41469;DHT22;27206;47.032;15.484;2022-12-07T01:07:02;2.50;1.00
41469;DHT22;27206;47.032;15.484;2022-12-07T01:09:28;2.50;1.00
41469;DHT22;27206;47.032;15.484;2022-12-07T01:11:53;2.50;1.00
41469;DHT22;27206;47.032;15.484;2022-12-07T01:14:19;2.60;1.00
41469;DHT22;27206;47.032;15.484;2022-12-07T01:16:44;2.60;1.00
41469;DHT22;27206;47.032;15.484;2022-12-07T01:19:10;2.60;1.00
41469;DHT22;27206;47.032;15.484;2022-12-07T01:21:35;2.60;1.00
41469;DHT22;27206;47.032;15.484;2022-12-07T01:24:03;2.50;1.00
41469;DHT22;27206;47.032;15.484;2022-12-07T01:26:29;2.50;1.00
41469;DHT22;27206;47.032;15.484;2022-12-07T01:28:55;2.50;1.00
41469;DHT22;27206;47.032;15.484;2022-12-07T01:31:21;2.50;1.00
41469;DHT22;27206;47.032;15.484;2022-12-07T01:33:50;2.40;1.00
41469;DHT22;27206;47.032;15.484;2022-12-07T01:36:23;2.50;1.00
41469;DHT22;27206;47.032;15.484;2022-12-07T01:38:50;2.40;1.00
41469;DHT22;27206;47.032;15.484;2022-12-07T01:41:17;2.40;1.00
41469;DHT22;27206;47.032;15.484;2022-12-07T01:46:27;2.40;1.00
41469;DHT22;27206;47.032;15.484;2022-12-07T01:48:53;2.40;1.00
41469;DHT22;27206;47.032;15.484;2022-12-07T01:51:18;2.30;1.00
41469;DHT22;27206;47.032;15.484;2022-12-07T01:53:44;2.40;1.00
41469;DHT22;27206;47.032;15.484;2022-12-07T01:56:11;2.40;1.00
41469;DHT22;27206;47.032;15.484;2022-12-07T01:58:39;2.50;1.00
41469;DHT22;27206;47.032;15.484;2022-12-07T02:01:05;2.40;1.00
41469;DHT22;27206;47.032;15.484;2022-12-07T02:03:41;2.40;1.00
41469;DHT22;27206;47.032;15.484;2022-12-07T02:06:07;2.30;1.00
41469;DHT22;27206;47.032;15.484;2022-12-07T02:08:33;2.40;1.00
41469;DHT22;27206;47.032;15.484;2022-12-07T02:10:59;2.30;1.00
41469;DHT22;27206;47.032;15.484;2022-12-07T02:13:26;2.30;1.00
41469;DHT22;27206;47.032;15.484;2022-12-07T02:16:05;2.40;1.00
41469;DHT22;27206;47.032;15.484;2022-12-07T02:31:25;2.40;1.00
41469;DHT22;27206;47.032;15.484;2022-12-07T02:33:54;2.40;1.00
41469;DHT22;27206;47.032;15.484;2022-12-07T02:36:26;2.40;1.00
41469;DHT22;27206;47.032;15.484;2022-12-07T02:41:22;2.30;1.00
41469;DHT22;27206;47.032;15.484;2022-12-07T02:43:53;2.30;1.00
41469;DHT22;27206;47.032;15.484;2022-12-07T02:46:27;2.30;1.00
41469;DHT22;27206;47.032;15.484;2022-12-07T02:48:53;2.30;1.00
41469;DHT22;27206;47.032;15.484;2022-12-07T02:51:20;2.30;1.00
41469;DHT22;27206;47.032;15.484;2022-12-07T02:53:46;2.20;1.00
41469;DHT22;27206;47.032;15.484;2022-12-07T03:03:52;2.20;1.00
41469;DHT22;27206;47.032;15.484;2022-12-07T03:06:22;2.20;1.00
41469;DHT22;27206;47.032;15.484;2022-12-07T03:09:13;2.30;1.00
41469;DHT22;27206;47.032;15.484;2022-12-07T03:11:58;2.30;1.00
41469;DHT22;27206;47.032;15.484;2022-12-07T03:14:30;2.30;1.00
41469;DHT22;27206;47.032;15.484;2022-12-07T03:19:23;2.10;1.00
41469;DHT22;27206;47.032;15.484;2022-12-07T03:21:55;2.10;1.00
41469;DHT22;27206;47.032;15.484;2022-12-07T03:24:22;2.30;1.00
41469;DHT22;27206;47.032;15.484;2022-12-07T03:26:53;2.40;1.00
41469;DHT22;27206;47.032;15.484;2022-12-07T03:29:21;2.40;1.00
41469;DHT22;27206;47.032;15.484;2022-12-07T03:31:51;2.50;1.00
41469;DHT22;27206;47.032;15.484;2022-12-07T03:36:56;2.40;1.00
41469;DHT22;27206;47.032;15.484;2022-12-07T03:39:45;2.40;1.00
41469;DHT22;27206;47.032;15.484;2022-12-07T03:42:12;2.40;1.00
41469;DHT22;27206;47.032;15.484;2022-12-07T03:44:38;2.40;1.00
41469;DHT22;27206;47.032;15.484;2022-12-07T03:47:05;2.40;1.00
41469;DHT22;27206;47.032;15.484;2022-12-07T03:49:41;2.40;1.00
41469;DHT22;27206;47.032;15.484;2022-12-07T03:52:18;2.40;1.00
41469;DHT22;27206;47.032;15.484;2022-12-07T03:54:48;2.50;1.00
41469;DHT22;27206;47.032;15.484;2022-12-07T03:57:17;2.50;1.00
41469;DHT22;27206;47.032;15.484;2022-12-07T03:59:43;2.50;1.00
41469;DHT22;27206;47.032;15.484;2022-12-07T04:02:09;2.50;1.00
41469;DHT22;27206;47.032;15.484;2022-12-07T04:04:36;2.50;1.00
41469;DHT22;27206;47.032;15.484;2022-12-07T04:07:01;2.50;1.00
41469;DHT22;27206;47.032;15.484;2022-12-07T04:09:27;2.40;1.00
41469;DHT22;27206;47.032;15.484;2022-12-07T04:11:52;2.40;1.00
41469;DHT22;27206;47.032;15.484;2022-12-07T04:14:18;2.40;1.00
41469;DHT22;27206;47.032;15.484;2022-12-07T04:16:44;2.40;1.00
41469;DHT22;27206;47.032;15.484;2022-12-07T04:19:09;2.30;1.00
41469;DHT22;27206;47.032;15.484;2022-12-07T04:21:35;2.30;1.00
41469;DHT22;27206;47.032;15.484;2022-12-07T04:24:00;2.20;1.00
41469;DHT22;27206;47.032;15.484;2022-12-07T04:26:26;2.10;1.00
41469;DHT22;27206;47.032;15.484;2022-12-07T04:28:51;2.20;1.00
41469;DHT22;27206;47.032;15.484;2022-12-07T04:31:17;2.30;1.00
41469;DHT22;27206;47.032;15.484;2022-12-07T04:33:42;2.30;1.00
41469;DHT22;27206;47.032;15.484;2022-12-07T04:36:08;2.30;1.00
41469;DHT22;27206;47.032;15.484;2022-12-07T04:38:33;2.30;1.00
41469;DHT22;27206;47.032;15.484;2022-12-07T04:41:03;2.40;1.00
41469;DHT22;27206;47.032;15.484;2022-12-07T04:43:29;2.30;1.00
41469;DHT22;27206;47.032;15.484;2022-12-07T04:45:54;2.30;1.00
41469;DHT22;27206;47.032;15.484;2022-12-07T04:48:20;2.30;1.00
41469;DHT22;27206;47.032;15.484;2022-12-07T04:50:47;2.10;1.00
41469;DHT22;27206;47.032;15.484;2022-12-07T04:53:13;2.00;1.00
41469;DHT22;27206;47.032;15.484;2022-12-07T04:55:38;2.10;1.00
41469;DHT22;27206;47.032;15.484;2022-12-07T04:58:04;2.30;1.00
41469;DHT22;27206;47.032;15.484;2022-12-07T05:00:29;2.30;1.00
41469;DHT22;27206;47.032;15.484;2022-12-07T05:02:55;2.20;1.00
41469;DHT22;27206;47.032;15.484;2022-12-07T05:05:20;2.10;1.00
41469;DHT22;27206;47.032;15.484;2022-12-07T05:07:46;2.00;1.00
41469;DHT22;27206;47.032;15.484;2022-12-07T05:10:11;2.00;1.00
41469;DHT22;27206;47.032;15.484;2022-12-07T05:12:37;2.10;1.00
41469;DHT22;27206;47.032;15.484;2022-12-07T05:15:02;2.10;1.00
41469;DHT22;27206;47.032;15.484;2022-12-07T05:17:28;2.20;1.00
41469;DHT22;27206;47.032;15.484;2022-12-07T05:19:53;2.20;1.00
41469;DHT22;27206;47.032;15.484;2022-12-07T05:22:19;2.20;1.00
41469;DHT22;27206;47.032;15.484;2022-12-07T05:24:44;2.10;1.00
41469;DHT22;27206;47.032;15.484;2022-12-07T05:27:10;2.10;1.00
41469;DHT22;27206;47.032;15.484;2022-12-07T05:29:35;2.00;1.00
41469;DHT22;27206;47.032;15.484;2022-12-07T05:32:01;2.10;1.00
41469;DHT22;27206;47.032;15.484;2022-12-07T05:34:26;2.00;1.00
41469;DHT22;27206;47.032;15.484;2022-12-07T05:36:52;2.00;1.00
41469;DHT22;27206;47.032;15.484;2022-12-07T05:39:17;1.90;1.00
41469;DHT22;27206;47.032;15.484;2022-12-07T05:41:43;1.80;1.00
41469;DHT22;27206;47.032;15.484;2022-12-07T05:44:26;1.80;1.00
41469;DHT22;27206;47.032;15.484;2022-12-07T05:46:52;1.70;1.00
41469;DHT22;27206;47.032;15.484;2022-12-07T05:49:18;1.90;1.00
41469;DHT22;27206;47.032;15.484;2022-12-07T05:51:43;1.80;1.00
41469;DHT22;27206;47.032;15.484;2022-12-07T05:54:09;1.90;1.00
41469;DHT22;27206;47.032;15.484;2022-12-07T05:56:34;1.80;1.00
41469;DHT22;27206;47.032;15.484;2022-12-07T05:59:00;1.70;1.00
41469;DHT22;27206;47.032;15.484;2022-12-07T06:01:44;1.80;1.00
41469;DHT22;27206;47.032;15.484;2022-12-07T06:04:09;1.80;1.00
41469;DHT22;27206;47.032;15.484;2022-12-07T06:06:35;1.80;1.00
41469;DHT22;27206;47.032;15.484;2022-12-07T06:09:00;1.70;1.00
41469;DHT22;27206;47.032;15.484;2022-12-07T06:11:26;1.70;1.00
41469;DHT22;27206;47.032;15.484;2022-12-07T06:14:10;1.50;1.00
41469;DHT22;27206;47.032;15.484;2022-12-07T06:16:38;1.50;1.00
41469;DHT22;27206;47.032;15.484;2022-12-07T06:19:03;1.50;1.00
41469;DHT22;27206;47.032;15.484;2022-12-07T06:21:29;1.40;1.00
41469;DHT22;27206;47.032;15.484;2022-12-07T06:23:54;1.50;1.00
41469;DHT22;27206;47.032;15.484;2022-12-07T06:26:20;1.70;1.00
41469;DHT22;27206;47.032;15.484;2022-12-07T06:28:45;1.80;1.00
41469;DHT22;27206;47.032;15.484;2022-12-07T06:31:11;1.70;1.00
41469;DHT22;27206;47.032;15.484;2022-12-07T06:33:36;1.80;1.00
41469;DHT22;27206;47.032;15.484;2022-12-07T06:36:02;1.80;1.00
41469;DHT22;27206;47.032;15.484;2022-12-07T06:38:27;1.70;1.00
41469;DHT22;27206;47.032;15.484;2022-12-07T06:40:53;1.90;1.00
41469;DHT22;27206;47.032;15.484;2022-12-07T06:43:18;1.80;1.00
41469;DHT22;27206;47.032;15.484;2022-12-07T06:45:44;1.80;1.00
41469;DHT22;27206;47.032;15.484;2022-12-07T06:48:09;1.90;1.00
41469;DHT22;27206;47.032;15.484;2022-12-07T06:50:35;1.90;1.00
41469;DHT22;27206;47.032;15.484;2022-12-07T06:53:00;1.90;1.00
41469;DHT22;27206;47.032;15.484;2022-12-07T06:55:26;1.90;1.00
41469;DHT22;27206;47.032;15.484;2022-12-07T06:57:51;1.80;1.00
41469;DHT22;27206;47.032;15.484;2022-12-07T07:00:17;1.90;1.00
41469;DHT22;27206;47.032;15.484;2022-12-07T07:02:42;1.70;1.00
41469;DHT22;27206;47.032;15.484;2022-12-07T07:05:08;1.80;1.00
41469;DHT22;27206;47.032;15.484;2022-12-07T07:07:33;1.90;1.00
41469;DHT22;27206;47.032;15.484;2022-12-07T07:09:59;2.00;1.00
41469;DHT22;27206;47.032;15.484;2022-12-07T07:12:24;2.00;1.00
41469;DHT22;27206;47.032;15.484;2022-12-07T07:14:50;2.00;1.00
41469;DHT22;27206;47.032;15.484;2022-12-07T07:17:15;2.00;1.00
41469;DHT22;27206;47.032;15.484;2022-12-07T07:19:41;2.10;1.00
41469;DHT22;27206;47.032;15.484;2022-12-07T07:22:06;2.00;1.00
41469;DHT22;27206;47.032;15.484;2022-12-07T07:24:32;2.10;1.00
41469;DHT22;27206;47.032;15.484;2022-12-07T07:26:57;2.00;1.00
41469;DHT22;27206;47.032;15.484;2022-12-07T07:29:23;2.00;1.00
41469;DHT22;27206;47.032;15.484;2022-12-07T07:31:49;2.00;1.00
41469;DHT22;27206;47.032;15.484;2022-12-07T07:34:14;2.00;1.00
41469;DHT22;27206;47.032;15.484;2022-12-07T07:36:40;2.00;1.00
41469;DHT22;27206;47.032;15.484;2022-12-07T07:39:05;2.00;1.00
41469;DHT22;27206;47.032;15.484;2022-12-07T07:41:31;1.90;1.00
41469;DHT22;27206;47.032;15.484;2022-12-07T07:43:57;2.10;1.00
41469;DHT22;27206;47.032;15.484;2022-12-07T07:46:23;2.20;1.00
41469;DHT22;27206;47.032;15.484;2022-12-07T07:48:48;2.20;1.00
41469;DHT22;27206;47.032;15.484;2022-12-07T07:51:14;2.30;1.00
41469;DHT22;27206;47.032;15.484;2022-12-07T07:53:39;2.20;1.00
41469;DHT22;27206;47.032;15.484;2022-12-07T07:56:05;2.10;1.00
41469;DHT22;27206;47.032;15.484;2022-12-07T07:58:30;2.20;1.00
41469;DHT22;27206;47.032;15.484;2022-12-07T08:00:56;2.20;1.00
41469;DHT22;27206;47.032;15.484;2022-12-07T08:03:21;2.20;1.00
41469;DHT22;27206;47.032;15.484;2022-12-07T08:05:47;2.20;1.00
41469;DHT22;27206;47.032;15.484;2022-12-07T08:08:12;2.20;1.00
41469;DHT22;27206;47.032;15.484;2022-12-07T08:10:38;2.20;1.00
41469;DHT22;27206;47.032;15.484;2022-12-07T08:13:04;2.20;1.00
41469;DHT22;27206;47.032;15.484;2022-12-07T08:15:36;2.10;1.00
41469;DHT22;27206;47.032;15.484;2022-12-07T08:18:02;2.00;1.00
41469;DHT22;27206;47.032;15.484;2022-12-07T08:20:29;2.10;1.00
41469;DHT22;27206;47.032;15.484;2022-12-07T08:22:54;2.10;1.00
41469;DHT22;27206;47.032;15.484;2022-12-07T08:25:20;2.10;1.00
41469;DHT22;27206;47.032;15.484;2022-12-07T08:27:47;2.20;1.00
41469;DHT22;27206;47.032;15.484;2022-12-07T08:30:13;2.30;1.00
41469;DHT22;27206;47.032;15.484;2022-12-07T08:32:38;2.50;1.00
41469;DHT22;27206;47.032;15.484;2022-12-07T08:35:04;2.50;1.00
41469;DHT22;27206;47.032;15.484;2022-12-07T08:37:29;2.60;1.00
41469;DHT22;27206;47.032;15.484;2022-12-07T08:39:56;2.50;1.00
41469;DHT22;27206;47.032;15.484;2022-12-07T08:42:21;2.60;1.00
41469;DHT22;27206;47.032;15.484;2022-12-07T08:44:48;2.50;1.00
41469;DHT22;27206;47.032;15.484;2022-12-07T08:47:13;2.50;1.00
41469;DHT22;27206;47.032;15.484;2022-12-07T08:49:40;2.50;1.00
41469;DHT22;27206;47.032;15.484;2022-12-07T08:52:06;2.50;1.00
41469;DHT22;27206;47.032;15.484;2022-12-07T08:54:33;2.40;1.00
41469;DHT22;27206;47.032;15.484;2022-12-07T08:56:59;2.60;1.00
41469;DHT22;27206;47.032;15.484;2022-12-07T08:59:25;2.70;1.00
41469;DHT22;27206;47.032;15.484;2022-12-07T09:01:51;2.70;1.00
41469;DHT22;27206;47.032;15.484;2022-12-07T09:04:17;2.60;1.00
41469;DHT22;27206;47.032;15.484;2022-12-07T09:06:42;2.50;1.00
41469;DHT22;27206;47.032;15.484;2022-12-07T09:09:08;2.80;1.00
41469;DHT22;27206;47.032;15.484;2022-12-07T09:11:34;2.80;1.00
41469;DHT22;27206;47.032;15.484;2022-12-07T09:13:59;2.70;1.00
41469;DHT22;27206;47.032;15.484;2022-12-07T09:16:25;2.80;1.00
41469;DHT22;27206;47.032;15.484;2022-12-07T09:18:50;2.80;1.00
41469;DHT22;27206;47.032;15.484;2022-12-07T09:21:16;2.70;1.00
41469;DHT22;27206;47.032;15.484;2022-12-07T09:23:42;2.70;1.00
41469;DHT22;27206;47.032;15.484;2022-12-07T09:26:07;2.90;1.00
41469;DHT22;27206;47.032;15.484;2022-12-07T09:28:33;2.90;1.00
41469;DHT22;27206;47.032;15.484;2022-12-07T09:30:59;2.90;1.00
41469;DHT22;27206;47.032;15.484;2022-12-07T09:33:24;2.80;1.00
41469;DHT22;27206;47.032;15.484;2022-12-07T09:35:51;2.90;1.00
41469;DHT22;27206;47.032;15.484;2022-12-07T09:38:17;3.00;1.00
41469;DHT22;27206;47.032;15.484;2022-12-07T09:40:42;3.10;1.00
41469;DHT22;27206;47.032;15.484;2022-12-07T09:43:14;3.20;1.00
41469;DHT22;27206;47.032;15.484;2022-12-07T09:45:40;3.30;1.00
41469;DHT22;27206;47.032;15.484;2022-12-07T09:48:09;3.30;1.00
41469;DHT22;27206;47.032;15.484;2022-12-07T09:50:39;3.40;1.00
41469;DHT22;27206;47.032;15.484;2022-12-07T09:53:09;3.40;1.00
41469;DHT22;27206;47.032;15.484;2022-12-07T09:55:35;3.40;1.00
41469;DHT22;27206;47.032;15.484;2022-12-07T09:58:01;3.40;1.00
41469;DHT22;27206;47.032;15.484;2022-12-07T10:00:27;3.50;1.00
41469;DHT22;27206;47.032;15.484;2022-12-07T10:02:57;3.60;1.00
41469;DHT22;27206;47.032;15.484;2022-12-07T10:05:34;3.50;1.00
41469;DHT22;27206;47.032;15.484;2022-12-07T10:08:00;3.60;1.00
41469;DHT22;27206;47.032;15.484;2022-12-07T10:10:30;3.60;1.00
41469;DHT22;27206;47.032;15.484;2022-12-07T10:13:00;3.50;1.00
41469;DHT22;27206;47.032;15.484;2022-12-07T10:23:34;3.60;1.00
41469;DHT22;27206;47.032;15.484;2022-12-07T10:26:18;3.50;1.00
41469;DHT22;27206;47.032;15.484;2022-12-07T10:28:44;3.50;1.00
41469;DHT22;27206;47.032;15.484;2022-12-07T10:31:20;3.40;1.00
41469;DHT22;27206;47.032;15.484;2022-12-07T10:33:50;3.50;1.00
41469;DHT22;27206;47.032;15.484;2022-12-07T10:38:47;3.70;1.00
41469;DHT22;27206;47.032;15.484;2022-12-07T10:41:12;3.70;1.00
41469;DHT22;27206;47.032;15.484;2022-12-07T10:43:45;3.70;1.00
41469;DHT22;27206;47.032;15.484;2022-12-07T10:51:44;3.80;1.00
41469;DHT22;27206;47.032;15.484;2022-12-07T11:05:16;4.20;1.00
41469;DHT22;27206;47.032;15.484;2022-12-07T11:10:37;4.20;1.00
41469;DHT22;27206;47.032;15.484;2022-12-07T11:13:16;4.20;1.00
41469;DHT22;27206;47.032;15.484;2022-12-07T11:16:01;4.20;1.00
41469;DHT22;27206;47.032;15.484;2022-12-07T11:38:37;6.10;1.00
41469;DHT22;27206;47.032;15.484;2022-12-07T11:41:06;5.90;1.00
41469;DHT22;27206;47.032;15.484;2022-12-07T11:43:42;5.90;1.00
41469;DHT22;27206;47.032;15.484;2022-12-07T11:46:15;5.60;1.00
41469;DHT22;27206;47.032;15.484;2022-12-07T11:48:55;5.10;1.00
41469;DHT22;27206;47.032;15.484;2022-12-07T11:51:23;5.00;1.00
41469;DHT22;27206;47.032;15.484;2022-12-07T11:53:51;5.20;1.00
41469;DHT22;27206;47.032;15.484;2022-12-07T11:56:21;5.10;1.00
41469;DHT22;27206;47.032;15.484;2022-12-07T12:03:44;5.00;1.00
41469;DHT22;27206;47.032;15.484;2022-12-07T12:06:10;5.00;1.00
41469;DHT22;27206;47.032;15.484;2022-12-07T12:08:38;5.00;1.00
41469;DHT22;27206;47.032;15.484;2022-12-07T12:21:52;5.90;1.00
41469;DHT22;27206;47.032;15.484;2022-12-07T12:24:19;5.90;1.00
41469;DHT22;27206;47.032;15.484;2022-12-07T12:26:52;6.40;99.90
41469;DHT22;27206;47.032;15.484;2022-12-07T12:29:20;6.80;99.90
41469;DHT22;27206;47.032;15.484;2022-12-07T12:31:47;7.40;99.90
41469;DHT22;27206;47.032;15.484;2022-12-07T12:34:30;7.40;99.90
41469;DHT22;27206;47.032;15.484;2022-12-07T12:36:56;7.10;99.90
41469;DHT22;27206;47.032;15.484;2022-12-07T12:39:22;7.30;99.90
41469;DHT22;27206;47.032;15.484;2022-12-07T12:41:55;7.40;99.90
41469;DHT22;27206;47.032;15.484;2022-12-07T12:51:42;7.00;99.90
41469;DHT22;27206;47.032;15.484;2022-12-07T12:54:15;7.10;99.90
41469;DHT22;27206;47.032;15.484;2022-12-07T12:56:51;6.90;99.90
41469;DHT22;27206;47.032;15.484;2022-12-07T12:59:22;6.50;99.90
41469;DHT22;27206;47.032;15.484;2022-12-07T13:01:48;6.20;99.90
41469;DHT22;27206;47.032;15.484;2022-12-07T13:04:16;6.30;99.90
41469;DHT22;27206;47.032;15.484;2022-12-07T13:06:43;6.30;99.90
41469;DHT22;27206;47.032;15.484;2022-12-07T13:09:17;6.00;1.00
41469;DHT22;27206;47.032;15.484;2022-12-07T13:11:44;6.10;1.00
41469;DHT22;27206;47.032;15.484;2022-12-07T13:16:54;5.90;1.00
41469;DHT22;27206;47.032;15.484;2022-12-07T13:19:36;5.90;1.00
41469;DHT22;27206;47.032;15.484;2022-12-07T13:24:56;5.80;1.00
41469;DHT22;27206;47.032;15.484;2022-12-07T13:27:21;5.80;1.00
41469;DHT22;27206;47.032;15.484;2022-12-07T13:29:47;5.60;1.00
41469;DHT22;27206;47.032;15.484;2022-12-07T13:32:23;5.60;1.00
41469;DHT22;27206;47.032;15.484;2022-12-07T13:34:49;5.60;1.00
41469;DHT22;27206;47.032;15.484;2022-12-07T13:37:18;5.40;1.00
41469;DHT22;27206;47.032;15.484;2022-12-07T13:39:54;5.50;1.00
41469;DHT22;27206;47.032;15.484;2022-12-07T13:44:54;5.30;1.00
41469;DHT22;27206;47.032;15.484;2022-12-07T13:49:49;5.40;1.00
41469;DHT22;27206;47.032;15.484;2022-12-07T13:52:20;5.30;1.00
41469;DHT22;27206;47.032;15.484;2022-12-07T13:54:47;5.30;1.00
41469;DHT22;27206;47.032;15.484;2022-12-07T13:57:14;5.20;1.00
41469;DHT22;27206;47.032;15.484;2022-12-07T13:59:40;5.10;1.00
41469;DHT22;27206;47.032;15.484;2022-12-07T14:02:22;5.10;1.00
41469;DHT22;27206;47.032;15.484;2022-12-07T14:04:49;5.20;1.00
41469;DHT22;27206;47.032;15.484;2022-12-07T14:07:25;5.10;1.00
41469;DHT22;27206;47.032;15.484;2022-12-07T14:09:55;5.10;1.00
41469;DHT22;27206;47.032;15.484;2022-12-07T14:12:21;5.10;1.00
41469;DHT22;27206;47.032;15.484;2022-12-07T14:14:47;5.00;1.00
41469;DHT22;27206;47.032;15.484;2022-12-07T14:17:20;5.00;1.00
41469;DHT22;27206;47.032;15.484;2022-12-07T14:19:49;5.00;1.00
41469;DHT22;27206;47.032;15.484;2022-12-07T14:24:49;4.90;1.00
41469;DHT22;27206;47.032;15.484;2022-12-07T14:27:19;4.90;1.00
41469;DHT22;27206;47.032;15.484;2022-12-07T14:29:45;4.80;1.00
41469;DHT22;27206;47.032;15.484;2022-12-07T14:32:15;4.80;1.00
41469;DHT22;27206;47.032;15.484;2022-12-07T14:34:52;4.70;1.00
41469;DHT22;27206;47.032;15.484;2022-12-07T14:37:18;4.70;1.00
41469;DHT22;27206;47.032;15.484;2022-12-07T14:39:43;4.70;1.00
41469;DHT22;27206;47.032;15.484;2022-12-07T14:42:09;4.70;1.00
41469;DHT22;27206;47.032;15.484;2022-12-07T14:44:35;4.70;1.00
41469;DHT22;27206;47.032;15.484;2022-12-07T14:47:00;4.70;1.00
41469;DHT22;27206;47.032;15.484;2022-12-07T14:49:26;4.60;1.00
41469;DHT22;27206;47.032;15.484;2022-12-07T14:51:51;4.60;1.00
41469;DHT22;27206;47.032;15.484;2022-12-07T14:54:19;4.60;1.00
41469;DHT22;27206;47.032;15.484;2022-12-07T14:56:45;4.60;1.00
41469;DHT22;27206;47.032;15.484;2022-12-07T14:59:14;4.60;1.00
41469;DHT22;27206;47.032;15.484;2022-12-07T15:01:39;4.60;1.00
41469;DHT22;27206;47.032;15.484;2022-12-07T15:04:05;4.60;1.00
41469;DHT22;27206;47.032;15.484;2022-12-07T15:06:30;4.50;1.00
41469;DHT22;27206;47.032;15.484;2022-12-07T15:08:56;4.40;1.00
41469;DHT22;27206;47.032;15.484;2022-12-07T15:11:21;4.40;1.00
41469;DHT22;27206;47.032;15.484;2022-12-07T15:13:47;4.40;1.00
41469;DHT22;27206;47.032;15.484;2022-12-07T15:16:31;4.40;1.00
41469;DHT22;27206;47.032;15.484;2022-12-07T15:18:57;4.40;1.00
41469;DHT22;27206;47.032;15.484;2022-12-07T15:21:22;4.30;1.00
41469;DHT22;27206;47.032;15.484;2022-12-07T15:23:48;4.30;1.00
41469;DHT22;27206;47.032;15.484;2022-12-07T15:26:13;4.30;1.00
41469;DHT22;27206;47.032;15.484;2022-12-07T15:28:40;4.30;1.00
41469;DHT22;27206;47.032;15.484;2022-12-07T15:31:12;4.30;1.00
41469;DHT22;27206;47.032;15.484;2022-12-07T15:33:38;4.20;1.00
41469;DHT22;27206;47.032;15.484;2022-12-07T15:36:03;4.20;1.00
41469;DHT22;27206;47.032;15.484;2022-12-07T15:38:29;4.20;1.00
41469;DHT22;27206;47.032;15.484;2022-12-07T15:40:56;4.20;1.00
41469;DHT22;27206;47.032;15.484;2022-12-07T15:43:21;4.30;1.00
41469;DHT22;27206;47.032;15.484;2022-12-07T15:46:05;4.30;1.00
41469;DHT22;27206;47.032;15.484;2022-12-07T15:48:31;4.20;1.00
41469;DHT22;27206;47.032;15.484;2022-12-07T15:51:03;4.20;1.00
41469;DHT22;27206;47.032;15.484;2022-12-07T15:53:29;4.20;1.00
41469;DHT22;27206;47.032;15.484;2022-12-07T15:55:54;4.30;1.00
41469;DHT22;27206;47.032;15.484;2022-12-07T15:58:20;4.30;1.00
41469;DHT22;27206;47.032;15.484;2022-12-07T16:00:45;4.30;1.00
41469;DHT22;27206;47.032;15.484;2022-12-07T16:03:12;4.30;1.00
41469;DHT22;27206;47.032;15.484;2022-12-07T16:05:37;4.30;1.00
41469;DHT22;27206;47.032;15.484;2022-12-07T16:08:03;4.30;1.00
41469;DHT22;27206;47.032;15.484;2022-12-07T16:10:28;4.20;1.00
41469;DHT22;27206;47.032;15.484;2022-12-07T16:12:54;4.30;1.00
41469;DHT22;27206;47.032;15.484;2022-12-07T16:15:19;4.30;1.00
41469;DHT22;27206;47.032;15.484;2022-12-07T16:17:45;4.30;1.00
41469;DHT22;27206;47.032;15.484;2022-12-07T16:20:10;4.20;1.00
41469;DHT22;27206;47.032;15.484;2022-12-07T16:22:36;4.20;1.00
41469;DHT22;27206;47.032;15.484;2022-12-07T16:25:02;4.30;1.00
41469;DHT22;27206;47.032;15.484;2022-12-07T16:27:28;4.20;1.00
41469;DHT22;27206;47.032;15.484;2022-12-07T16:29:53;4.20;1.00
41469;DHT22;27206;47.032;15.484;2022-12-07T16:32:19;4.20;1.00
41469;DHT22;27206;47.032;15.484;2022-12-07T16:34:44;4.10;1.00
41469;DHT22;27206;47.032;15.484;2022-12-07T16:37:10;4.10;1.00
41469;DHT22;27206;47.032;15.484;2022-12-07T16:39:35;4.00;1.00
41469;DHT22;27206;47.032;15.484;2022-12-07T16:42:01;4.10;1.00
41469;DHT22;27206;47.032;15.484;2022-12-07T16:44:27;4.10;1.00
41469;DHT22;27206;47.032;15.484;2022-12-07T16:46:53;4.10;1.00
41469;DHT22;27206;47.032;15.484;2022-12-07T16:49:19;4.10;1.00
41469;DHT22;27206;47.032;15.484;2022-12-07T16:51:44;4.20;1.00
41469;DHT22;27206;47.032;15.484;2022-12-07T16:54:11;4.20;1.00
41469;DHT22;27206;47.032;15.484;2022-12-07T16:56:37;4.20;1.00
41469;DHT22;27206;47.032;15.484;2022-12-07T16:59:03;4.10;1.00
41469;DHT22;27206;47.032;15.484;2022-12-07T17:01:28;4.10;1.00
41469;DHT22;27206;47.032;15.484;2022-12-07T17:03:54;4.10;1.00
41469;DHT22;27206;47.032;15.484;2022-12-07T17:06:25;4.10;1.00
41469;DHT22;27206;47.032;15.484;2022-12-07T17:08:51;4.10;1.00
41469;DHT22;27206;47.032;15.484;2022-12-07T17:13:42;4.10;1.00
41469;DHT22;27206;47.032;15.484;2022-12-07T17:16:26;4.00;1.00
41469;DHT22;27206;47.032;15.484;2022-12-07T17:18:52;4.00;1.00
41469;DHT22;27206;47.032;15.484;2022-12-07T17:21:17;3.90;1.00
41469;DHT22;27206;47.032;15.484;2022-12-07T17:23:43;3.90;1.00
41469;DHT22;27206;47.032;15.484;2022-12-07T17:26:16;4.00;1.00
41469;DHT22;27206;47.032;15.484;2022-12-07T17:28:42;3.90;1.00
41469;DHT22;27206;47.032;15.484;2022-12-07T17:31:08;4.00;1.00
41469;DHT22;27206;47.032;15.484;2022-12-07T17:33:35;4.00;1.00
41469;DHT22;27206;47.032;15.484;2022-12-07T17:36:01;4.00;1.00
41469;DHT22;27206;47.032;15.484;2022-12-07T17:38:33;3.90;1.00
41469;DHT22;27206;47.032;15.484;2022-12-07T17:40:59;3.90;1.00
41469;DHT22;27206;47.032;15.484;2022-12-07T17:43:24;3.90;1.00
41469;DHT22;27206;47.032;15.484;2022-12-07T17:45:50;3.80;1.00
41469;DHT22;27206;47.032;15.484;2022-12-07T17:48:15;3.90;1.00